sensor_id;sensor_type;location;lat;lon;timestamp;P1;durP1;ratioP1;P2;durP2;ratioP2
20348;SDS011;10332;50.208;18.988;2023-06-19T00:00:19;11.90;;;9.15;;
20348;SDS011;10332;50.208;18.988;2023-06-19T00:03:07;11.00;;;8.77;;
20348;SDS011;10332;50.208;18.988;2023-06-19T00:05:35;11.52;;;9.00;;
20348;SDS011;10332;50.208;18.988;2023-06-19T00:08:03;10.63;;;8.90;;
20348;SDS011;10332;50.208;18.988;2023-06-19T00:10:32;10.23;;;8.65;;
20348;SDS011;10332;50.208;18.988;2023-06-19T00:13:00;9.88;;;8.40;;
20348;SDS011;10332;50.208;18.988;2023-06-19T00:15:28;11.93;;;9.32;;
20348;SDS011;10332;50.208;18.988;2023-06-19T00:17:58;9.93;;;7.38;;
20348;SDS011;10332;50.208;18.988;2023-06-19T00:20:26;8.18;;;7.35;;
20348;SDS011;10332;50.208;18.988;2023-06-19T00:22:53;11.07;;;9.13;;
20348;SDS011;10332;50.208;18.988;2023-06-19T00:25:21;11.77;;;9.65;;
20348;SDS011;10332;50.208;18.988;2023-06-19T00:27:48;13.95;;;10.23;;
20348;SDS011;10332;50.208;18.988;2023-06-19T00:30:16;11.23;;;10.02;;
20348;SDS011;10332;50.208;18.988;2023-06-19T00:32:45;13.77;;;10.15;;
20348;SDS011;10332;50.208;18.988;2023-06-19T00:35:16;14.65;;;10.63;;
20348;SDS011;10332;50.208;18.988;2023-06-19T00:37:49;13.73;;;10.88;;
20348;SDS011;10332;50.208;18.988;2023-06-19T00:40:19;11.30;;;10.02;;
20348;SDS011;10332;50.208;18.988;2023-06-19T00:42:54;11.18;;;8.98;;
20348;SDS011;10332;50.208;18.988;2023-06-19T00:45:22;12.00;;;9.98;;
20348;SDS011;10332;50.208;18.988;2023-06-19T00:47:51;9.55;;;8.20;;
20348;SDS011;10332;50.208;18.988;2023-06-19T00:50:24;12.55;;;9.35;;
20348;SDS011;10332;50.208;18.988;2023-06-19T00:52:52;11.40;;;9.43;;
20348;SDS011;10332;50.208;18.988;2023-06-19T00:55:21;13.02;;;9.32;;
20348;SDS011;10332;50.208;18.988;2023-06-19T00:57:49;10.32;;;9.10;;
20348;SDS011;10332;50.208;18.988;2023-06-19T01:00:19;12.40;;;8.70;;
20348;SDS011;10332;50.208;18.988;2023-06-19T01:02:47;9.02;;;7.85;;
20348;SDS011;10332;50.208;18.988;2023-06-19T01:05:14;9.95;;;8.82;;
20348;SDS011;10332;50.208;18.988;2023-06-19T01:10:44;7.90;;;6.72;;
20348;SDS011;10332;50.208;18.988;2023-06-19T01:16:06;9.82;;;7.60;;
20348;SDS011;10332;50.208;18.988;2023-06-19T01:18:35;7.75;;;6.70;;
20348;SDS011;10332;50.208;18.988;2023-06-19T01:21:13;13.23;;;9.27;;
20348;SDS011;10332;50.208;18.988;2023-06-19T01:23:43;14.55;;;11.88;;
20348;SDS011;10332;50.208;18.988;2023-06-19T01:26:11;14.00;;;10.45;;
20348;SDS011;10332;50.208;18.988;2023-06-19T01:28:40;11.35;;;10.15;;
20348;SDS011;10332;50.208;18.988;2023-06-19T01:31:30;15.15;;;12.13;;
20348;SDS011;10332;50.208;18.988;2023-06-19T01:34:26;14.23;;;11.43;;
20348;SDS011;10332;50.208;18.988;2023-06-19T01:36:57;8.98;;;7.88;;
20348;SDS011;10332;50.208;18.988;2023-06-19T01:39:26;7.85;;;6.85;;
20348;SDS011;10332;50.208;18.988;2023-06-19T01:41:54;9.52;;;7.95;;
20348;SDS011;10332;50.208;18.988;2023-06-19T01:44:23;18.05;;;13.95;;
20348;SDS011;10332;50.208;18.988;2023-06-19T01:46:51;16.58;;;13.27;;
20348;SDS011;10332;50.208;18.988;2023-06-19T01:49:19;13.13;;;9.73;;
20348;SDS011;10332;50.208;18.988;2023-06-19T01:51:47;15.23;;;12.10;;
20348;SDS011;10332;50.208;18.988;2023-06-19T01:54:15;10.63;;;8.77;;
20348;SDS011;10332;50.208;18.988;2023-06-19T01:56:42;15.98;;;11.45;;
20348;SDS011;10332;50.208;18.988;2023-06-19T01:59:10;12.00;;;10.68;;
20348;SDS011;10332;50.208;18.988;2023-06-19T02:01:38;11.77;;;10.55;;
20348;SDS011;10332;50.208;18.988;2023-06-19T02:04:05;14.00;;;10.85;;
20348;SDS011;10332;50.208;18.988;2023-06-19T02:06:33;13.02;;;10.73;;
20348;SDS011;10332;50.208;18.988;2023-06-19T02:09:01;10.15;;;9.13;;
20348;SDS011;10332;50.208;18.988;2023-06-19T02:11:28;19.95;;;14.18;;
20348;SDS011;10332;50.208;18.988;2023-06-19T02:13:56;18.17;;;14.40;;
20348;SDS011;10332;50.208;18.988;2023-06-19T02:16:23;21.35;;;15.68;;
20348;SDS011;10332;50.208;18.988;2023-06-19T02:18:51;17.80;;;13.95;;
20348;SDS011;10332;50.208;18.988;2023-06-19T02:21:18;18.30;;;15.30;;
20348;SDS011;10332;50.208;18.988;2023-06-19T02:23:53;16.80;;;14.45;;
20348;SDS011;10332;50.208;18.988;2023-06-19T02:26:21;19.35;;;15.63;;
20348;SDS011;10332;50.208;18.988;2023-06-19T02:28:49;21.25;;;17.17;;
20348;SDS011;10332;50.208;18.988;2023-06-19T02:31:16;21.63;;;16.77;;
20348;SDS011;10332;50.208;18.988;2023-06-19T02:33:44;18.65;;;15.05;;
20348;SDS011;10332;50.208;18.988;2023-06-19T02:36:11;22.55;;;17.42;;
20348;SDS011;10332;50.208;18.988;2023-06-19T02:38:39;20.75;;;16.48;;
20348;SDS011;10332;50.208;18.988;2023-06-19T02:41:08;20.42;;;16.13;;
20348;SDS011;10332;50.208;18.988;2023-06-19T02:43:36;21.73;;;16.48;;
20348;SDS011;10332;50.208;18.988;2023-06-19T02:46:03;18.27;;;14.05;;
20348;SDS011;10332;50.208;18.988;2023-06-19T02:48:31;18.20;;;14.18;;
20348;SDS011;10332;50.208;18.988;2023-06-19T02:50:58;15.98;;;12.60;;
20348;SDS011;10332;50.208;18.988;2023-06-19T02:53:26;12.63;;;10.15;;
20348;SDS011;10332;50.208;18.988;2023-06-19T02:55:53;9.90;;;8.70;;
20348;SDS011;10332;50.208;18.988;2023-06-19T02:58:21;13.57;;;11.40;;
20348;SDS011;10332;50.208;18.988;2023-06-19T03:00:48;12.38;;;10.40;;
20348;SDS011;10332;50.208;18.988;2023-06-19T03:03:16;12.20;;;10.35;;
20348;SDS011;10332;50.208;18.988;2023-06-19T03:05:43;13.80;;;10.77;;
20348;SDS011;10332;50.208;18.988;2023-06-19T03:08:11;13.95;;;11.55;;
20348;SDS011;10332;50.208;18.988;2023-06-19T03:10:38;14.15;;;11.13;;
20348;SDS011;10332;50.208;18.988;2023-06-19T03:13:06;18.50;;;13.95;;
20348;SDS011;10332;50.208;18.988;2023-06-19T03:15:33;15.35;;;13.23;;
20348;SDS011;10332;50.208;18.988;2023-06-19T03:18:01;14.82;;;12.52;;
20348;SDS011;10332;50.208;18.988;2023-06-19T03:20:31;16.92;;;11.15;;
20348;SDS011;10332;50.208;18.988;2023-06-19T03:22:58;14.38;;;11.85;;
20348;SDS011;10332;50.208;18.988;2023-06-19T03:25:25;12.05;;;10.15;;
20348;SDS011;10332;50.208;18.988;2023-06-19T03:27:53;11.48;;;8.73;;
20348;SDS011;10332;50.208;18.988;2023-06-19T03:30:21;8.88;;;7.15;;
20348;SDS011;10332;50.208;18.988;2023-06-19T03:32:49;10.82;;;8.85;;
20348;SDS011;10332;50.208;18.988;2023-06-19T03:35:17;14.55;;;12.43;;
20348;SDS011;10332;50.208;18.988;2023-06-19T03:37:44;15.90;;;11.93;;
20348;SDS011;10332;50.208;18.988;2023-06-19T03:40:11;16.98;;;13.35;;
20348;SDS011;10332;50.208;18.988;2023-06-19T03:42:40;12.15;;;10.68;;
20348;SDS011;10332;50.208;18.988;2023-06-19T03:45:08;14.20;;;11.45;;
20348;SDS011;10332;50.208;18.988;2023-06-19T03:47:36;14.98;;;11.82;;
20348;SDS011;10332;50.208;18.988;2023-06-19T03:50:04;14.90;;;11.93;;
20348;SDS011;10332;50.208;18.988;2023-06-19T03:52:56;13.10;;;11.65;;
20348;SDS011;10332;50.208;18.988;2023-06-19T03:55:23;14.90;;;10.73;;
20348;SDS011;10332;50.208;18.988;2023-06-19T03:57:51;15.38;;;11.85;;
20348;SDS011;10332;50.208;18.988;2023-06-19T04:00:19;15.30;;;13.43;;
20348;SDS011;10332;50.208;18.988;2023-06-19T04:02:47;18.23;;;14.82;;
20348;SDS011;10332;50.208;18.988;2023-06-19T04:05:15;13.65;;;11.15;;
20348;SDS011;10332;50.208;18.988;2023-06-19T04:07:43;12.25;;;10.00;;
20348;SDS011;10332;50.208;18.988;2023-06-19T04:10:10;15.40;;;11.48;;
20348;SDS011;10332;50.208;18.988;2023-06-19T04:12:41;15.93;;;12.68;;
20348;SDS011;10332;50.208;18.988;2023-06-19T04:15:08;15.13;;;12.00;;
20348;SDS011;10332;50.208;18.988;2023-06-19T04:17:37;14.88;;;11.32;;
20348;SDS011;10332;50.208;18.988;2023-06-19T04:20:04;16.25;;;13.20;;
20348;SDS011;10332;50.208;18.988;2023-06-19T04:22:38;17.27;;;12.45;;
20348;SDS011;10332;50.208;18.988;2023-06-19T04:25:08;18.95;;;13.70;;
20348;SDS011;10332;50.208;18.988;2023-06-19T04:27:39;17.27;;;12.75;;
20348;SDS011;10332;50.208;18.988;2023-06-19T04:30:07;15.52;;;11.85;;
20348;SDS011;10332;50.208;18.988;2023-06-19T04:32:35;14.80;;;11.18;;
20348;SDS011;10332;50.208;18.988;2023-06-19T04:35:03;17.70;;;13.40;;
20348;SDS011;10332;50.208;18.988;2023-06-19T04:37:31;14.80;;;11.00;;
20348;SDS011;10332;50.208;18.988;2023-06-19T04:39:58;13.55;;;10.80;;
20348;SDS011;10332;50.208;18.988;2023-06-19T04:42:26;13.88;;;11.13;;
20348;SDS011;10332;50.208;18.988;2023-06-19T04:44:54;14.50;;;11.30;;
20348;SDS011;10332;50.208;18.988;2023-06-19T04:47:23;13.88;;;10.65;;
20348;SDS011;10332;50.208;18.988;2023-06-19T04:49:59;14.00;;;10.82;;
20348;SDS011;10332;50.208;18.988;2023-06-19T04:52:27;12.80;;;10.43;;
20348;SDS011;10332;50.208;18.988;2023-06-19T04:54:54;14.32;;;10.52;;
20348;SDS011;10332;50.208;18.988;2023-06-19T04:57:22;15.05;;;11.15;;
20348;SDS011;10332;50.208;18.988;2023-06-19T04:59:49;11.55;;;9.23;;
20348;SDS011;10332;50.208;18.988;2023-06-19T05:02:17;14.50;;;10.85;;
20348;SDS011;10332;50.208;18.988;2023-06-19T05:04:44;19.05;;;12.70;;
20348;SDS011;10332;50.208;18.988;2023-06-19T05:07:12;12.70;;;10.07;;
20348;SDS011;10332;50.208;18.988;2023-06-19T05:09:42;9.38;;;7.45;;
20348;SDS011;10332;50.208;18.988;2023-06-19T05:12:10;12.68;;;9.90;;
20348;SDS011;10332;50.208;18.988;2023-06-19T05:14:38;11.30;;;9.30;;
20348;SDS011;10332;50.208;18.988;2023-06-19T05:17:06;13.75;;;10.07;;
20348;SDS011;10332;50.208;18.988;2023-06-19T05:19:33;14.02;;;10.35;;
20348;SDS011;10332;50.208;18.988;2023-06-19T05:22:01;14.30;;;9.52;;
20348;SDS011;10332;50.208;18.988;2023-06-19T05:24:28;10.02;;;7.40;;
20348;SDS011;10332;50.208;18.988;2023-06-19T05:26:56;10.07;;;8.23;;
20348;SDS011;10332;50.208;18.988;2023-06-19T05:29:24;8.68;;;7.32;;
20348;SDS011;10332;50.208;18.988;2023-06-19T05:31:52;9.80;;;7.50;;
20348;SDS011;10332;50.208;18.988;2023-06-19T05:34:19;10.73;;;8.20;;
20348;SDS011;10332;50.208;18.988;2023-06-19T05:36:47;10.73;;;7.85;;
20348;SDS011;10332;50.208;18.988;2023-06-19T05:39:14;8.85;;;7.43;;
20348;SDS011;10332;50.208;18.988;2023-06-19T05:41:42;10.63;;;8.50;;
20348;SDS011;10332;50.208;18.988;2023-06-19T05:44:12;10.18;;;7.88;;
20348;SDS011;10332;50.208;18.988;2023-06-19T05:46:51;10.95;;;8.48;;
20348;SDS011;10332;50.208;18.988;2023-06-19T05:49:18;9.38;;;7.35;;
20348;SDS011;10332;50.208;18.988;2023-06-19T05:51:46;9.43;;;7.70;;
20348;SDS011;10332;50.208;18.988;2023-06-19T05:54:14;9.68;;;8.10;;
20348;SDS011;10332;50.208;18.988;2023-06-19T05:56:44;11.55;;;8.57;;
20348;SDS011;10332;50.208;18.988;2023-06-19T05:59:13;10.52;;;7.85;;
20348;SDS011;10332;50.208;18.988;2023-06-19T06:01:41;11.48;;;7.68;;
20348;SDS011;10332;50.208;18.988;2023-06-19T06:04:09;11.05;;;7.95;;
20348;SDS011;10332;50.208;18.988;2023-06-19T06:06:36;10.30;;;7.80;;
20348;SDS011;10332;50.208;18.988;2023-06-19T06:09:04;10.60;;;8.63;;
20348;SDS011;10332;50.208;18.988;2023-06-19T06:11:31;12.23;;;8.98;;
20348;SDS011;10332;50.208;18.988;2023-06-19T06:13:59;11.80;;;8.45;;
20348;SDS011;10332;50.208;18.988;2023-06-19T06:16:26;9.75;;;7.75;;
20348;SDS011;10332;50.208;18.988;2023-06-19T06:18:54;10.82;;;8.27;;
20348;SDS011;10332;50.208;18.988;2023-06-19T06:21:22;10.00;;;7.72;;
20348;SDS011;10332;50.208;18.988;2023-06-19T06:23:49;12.23;;;7.65;;
20348;SDS011;10332;50.208;18.988;2023-06-19T06:26:17;10.45;;;8.15;;
20348;SDS011;10332;50.208;18.988;2023-06-19T06:28:45;9.55;;;7.65;;
20348;SDS011;10332;50.208;18.988;2023-06-19T06:31:13;9.93;;;8.20;;
20348;SDS011;10332;50.208;18.988;2023-06-19T06:33:40;9.68;;;7.35;;
20348;SDS011;10332;50.208;18.988;2023-06-19T06:36:08;11.15;;;6.88;;
20348;SDS011;10332;50.208;18.988;2023-06-19T06:38:35;10.30;;;6.50;;
20348;SDS011;10332;50.208;18.988;2023-06-19T06:41:03;9.75;;;6.80;;
20348;SDS011;10332;50.208;18.988;2023-06-19T06:43:31;9.60;;;7.05;;
20348;SDS011;10332;50.208;18.988;2023-06-19T06:45:58;8.52;;;6.43;;
20348;SDS011;10332;50.208;18.988;2023-06-19T06:48:26;7.15;;;5.95;;
20348;SDS011;10332;50.208;18.988;2023-06-19T06:50:54;9.00;;;6.57;;
20348;SDS011;10332;50.208;18.988;2023-06-19T06:53:27;10.38;;;7.18;;
20348;SDS011;10332;50.208;18.988;2023-06-19T06:55:55;10.15;;;7.95;;
20348;SDS011;10332;50.208;18.988;2023-06-19T06:58:24;7.97;;;6.38;;
20348;SDS011;10332;50.208;18.988;2023-06-19T07:00:52;13.73;;;6.85;;
20348;SDS011;10332;50.208;18.988;2023-06-19T07:03:20;8.88;;;6.50;;
20348;SDS011;10332;50.208;18.988;2023-06-19T07:05:48;6.70;;;5.85;;
20348;SDS011;10332;50.208;18.988;2023-06-19T07:08:16;10.10;;;7.72;;
20348;SDS011;10332;50.208;18.988;2023-06-19T07:10:43;7.82;;;6.32;;
20348;SDS011;10332;50.208;18.988;2023-06-19T07:13:11;7.68;;;6.07;;
20348;SDS011;10332;50.208;18.988;2023-06-19T07:15:38;7.80;;;5.97;;
20348;SDS011;10332;50.208;18.988;2023-06-19T07:18:07;8.85;;;7.63;;
20348;SDS011;10332;50.208;18.988;2023-06-19T07:20:35;10.48;;;7.10;;
20348;SDS011;10332;50.208;18.988;2023-06-19T07:23:02;9.55;;;7.32;;
20348;SDS011;10332;50.208;18.988;2023-06-19T07:25:30;8.95;;;7.07;;
20348;SDS011;10332;50.208;18.988;2023-06-19T07:28:00;8.70;;;6.95;;
20348;SDS011;10332;50.208;18.988;2023-06-19T07:30:28;9.10;;;7.22;;
20348;SDS011;10332;50.208;18.988;2023-06-19T07:32:55;8.85;;;6.40;;
20348;SDS011;10332;50.208;18.988;2023-06-19T07:35:23;8.13;;;6.93;;
20348;SDS011;10332;50.208;18.988;2023-06-19T07:37:50;6.88;;;6.13;;
20348;SDS011;10332;50.208;18.988;2023-06-19T07:40:18;8.07;;;6.25;;
20348;SDS011;10332;50.208;18.988;2023-06-19T07:42:45;7.72;;;6.22;;
20348;SDS011;10332;50.208;18.988;2023-06-19T07:45:13;7.68;;;6.38;;
20348;SDS011;10332;50.208;18.988;2023-06-19T07:47:40;6.78;;;5.70;;
20348;SDS011;10332;50.208;18.988;2023-06-19T07:50:08;7.88;;;5.88;;
20348;SDS011;10332;50.208;18.988;2023-06-19T07:52:36;9.02;;;7.15;;
20348;SDS011;10332;50.208;18.988;2023-06-19T07:55:04;7.32;;;6.35;;
20348;SDS011;10332;50.208;18.988;2023-06-19T07:57:32;7.53;;;6.55;;
20348;SDS011;10332;50.208;18.988;2023-06-19T07:59:59;7.05;;;5.95;;
20348;SDS011;10332;50.208;18.988;2023-06-19T08:02:27;10.05;;;8.23;;
20348;SDS011;10332;50.208;18.988;2023-06-19T08:04:56;7.63;;;6.35;;
20348;SDS011;10332;50.208;18.988;2023-06-19T08:07:23;9.48;;;7.50;;
20348;SDS011;10332;50.208;18.988;2023-06-19T08:09:51;8.55;;;6.55;;
20348;SDS011;10332;50.208;18.988;2023-06-19T08:12:33;8.50;;;7.40;;
20348;SDS011;10332;50.208;18.988;2023-06-19T08:15:01;8.77;;;7.82;;
20348;SDS011;10332;50.208;18.988;2023-06-19T08:17:28;6.57;;;5.80;;
20348;SDS011;10332;50.208;18.988;2023-06-19T08:19:56;6.18;;;5.30;;
20348;SDS011;10332;50.208;18.988;2023-06-19T08:22:23;7.68;;;6.47;;
20348;SDS011;10332;50.208;18.988;2023-06-19T08:24:52;6.20;;;5.40;;
20348;SDS011;10332;50.208;18.988;2023-06-19T08:27:19;7.22;;;5.50;;
20348;SDS011;10332;50.208;18.988;2023-06-19T08:29:47;6.50;;;5.45;;
20348;SDS011;10332;50.208;18.988;2023-06-19T08:32:14;6.85;;;5.32;;
20348;SDS011;10332;50.208;18.988;2023-06-19T08:34:43;11.95;;;8.50;;
20348;SDS011;10332;50.208;18.988;2023-06-19T08:37:10;12.73;;;10.52;;
20348;SDS011;10332;50.208;18.988;2023-06-19T08:39:38;12.20;;;9.52;;
20348;SDS011;10332;50.208;18.988;2023-06-19T08:42:06;6.68;;;5.47;;
20348;SDS011;10332;50.208;18.988;2023-06-19T08:44:37;6.40;;;5.80;;
20348;SDS011;10332;50.208;18.988;2023-06-19T08:47:05;5.95;;;5.35;;
20348;SDS011;10332;50.208;18.988;2023-06-19T08:49:33;7.68;;;6.15;;
20348;SDS011;10332;50.208;18.988;2023-06-19T08:52:02;6.82;;;5.53;;
20348;SDS011;10332;50.208;18.988;2023-06-19T08:54:31;6.60;;;5.90;;
20348;SDS011;10332;50.208;18.988;2023-06-19T08:57:02;10.95;;;9.10;;
20348;SDS011;10332;50.208;18.988;2023-06-19T08:59:30;6.53;;;5.50;;
20348;SDS011;10332;50.208;18.988;2023-06-19T09:02:00;5.78;;;5.00;;
20348;SDS011;10332;50.208;18.988;2023-06-19T09:04:28;7.10;;;5.57;;
20348;SDS011;10332;50.208;18.988;2023-06-19T09:07:01;5.60;;;5.03;;
20348;SDS011;10332;50.208;18.988;2023-06-19T09:09:31;6.63;;;5.10;;
20348;SDS011;10332;50.208;18.988;2023-06-19T09:12:08;6.65;;;5.60;;
20348;SDS011;10332;50.208;18.988;2023-06-19T09:14:48;5.22;;;4.70;;
20348;SDS011;10332;50.208;18.988;2023-06-19T09:17:19;5.68;;;5.05;;
20348;SDS011;10332;50.208;18.988;2023-06-19T09:19:49;5.47;;;4.97;;
20348;SDS011;10332;50.208;18.988;2023-06-19T09:22:23;6.20;;;5.53;;
20348;SDS011;10332;50.208;18.988;2023-06-19T09:25:00;7.20;;;5.47;;
20348;SDS011;10332;50.208;18.988;2023-06-19T09:27:32;6.13;;;5.50;;
20348;SDS011;10332;50.208;18.988;2023-06-19T09:30:00;6.25;;;5.65;;
20348;SDS011;10332;50.208;18.988;2023-06-19T09:32:29;6.28;;;5.50;;
20348;SDS011;10332;50.208;18.988;2023-06-19T09:34:57;6.28;;;5.68;;
20348;SDS011;10332;50.208;18.988;2023-06-19T09:37:26;5.78;;;5.15;;
20348;SDS011;10332;50.208;18.988;2023-06-19T09:39:58;7.10;;;5.25;;
20348;SDS011;10332;50.208;18.988;2023-06-19T09:42:38;5.55;;;4.95;;
20348;SDS011;10332;50.208;18.988;2023-06-19T09:45:11;4.80;;;4.40;;
20348;SDS011;10332;50.208;18.988;2023-06-19T09:47:45;7.75;;;6.40;;
20348;SDS011;10332;50.208;18.988;2023-06-19T09:50:16;10.00;;;8.35;;
20348;SDS011;10332;50.208;18.988;2023-06-19T09:52:46;6.90;;;6.10;;
20348;SDS011;10332;50.208;18.988;2023-06-19T09:55:18;5.45;;;4.80;;
20348;SDS011;10332;50.208;18.988;2023-06-19T09:57:50;5.38;;;4.88;;
20348;SDS011;10332;50.208;18.988;2023-06-19T10:00:20;5.40;;;4.90;;
20348;SDS011;10332;50.208;18.988;2023-06-19T10:02:54;5.32;;;4.82;;
20348;SDS011;10332;50.208;18.988;2023-06-19T10:05:31;5.35;;;4.78;;
20348;SDS011;10332;50.208;18.988;2023-06-19T10:07:59;6.05;;;5.45;;
20348;SDS011;10332;50.208;18.988;2023-06-19T10:10:28;5.68;;;5.07;;
20348;SDS011;10332;50.208;18.988;2023-06-19T10:13:00;5.30;;;4.80;;
20348;SDS011;10332;50.208;18.988;2023-06-19T10:15:43;4.68;;;4.28;;
20348;SDS011;10332;50.208;18.988;2023-06-19T10:18:14;6.32;;;5.53;;
20348;SDS011;10332;50.208;18.988;2023-06-19T10:20:44;5.38;;;4.88;;
20348;SDS011;10332;50.208;18.988;2023-06-19T10:23:18;4.80;;;4.20;;
20348;SDS011;10332;50.208;18.988;2023-06-19T10:25:58;4.80;;;4.40;;
20348;SDS011;10332;50.208;18.988;2023-06-19T10:28:30;4.47;;;4.07;;
20348;SDS011;10332;50.208;18.988;2023-06-19T10:31:00;6.38;;;5.78;;
20348;SDS011;10332;50.208;18.988;2023-06-19T10:33:30;4.80;;;4.40;;
20348;SDS011;10332;50.208;18.988;2023-06-19T10:36:00;5.20;;;4.70;;
20348;SDS011;10332;50.208;18.988;2023-06-19T10:38:45;4.93;;;4.43;;
20348;SDS011;10332;50.208;18.988;2023-06-19T10:41:16;4.60;;;4.20;;
20348;SDS011;10332;50.208;18.988;2023-06-19T10:43:55;4.68;;;4.28;;
20348;SDS011;10332;50.208;18.988;2023-06-19T10:46:32;6.13;;;4.97;;
20348;SDS011;10332;50.208;18.988;2023-06-19T10:49:05;5.03;;;4.57;;
20348;SDS011;10332;50.208;18.988;2023-06-19T10:51:37;5.95;;;4.95;;
20348;SDS011;10332;50.208;18.988;2023-06-19T10:54:06;4.93;;;4.30;;
20348;SDS011;10332;50.208;18.988;2023-06-19T10:56:34;5.40;;;4.35;;
20348;SDS011;10332;50.208;18.988;2023-06-19T10:59:04;4.18;;;3.78;;
20348;SDS011;10332;50.208;18.988;2023-06-19T11:01:39;4.88;;;4.38;;
20348;SDS011;10332;50.208;18.988;2023-06-19T11:04:09;6.05;;;4.90;;
20348;SDS011;10332;50.208;18.988;2023-06-19T11:06:38;4.47;;;4.07;;
20348;SDS011;10332;50.208;18.988;2023-06-19T11:09:08;4.68;;;4.28;;
20348;SDS011;10332;50.208;18.988;2023-06-19T11:14:15;4.65;;;4.25;;
20348;SDS011;10332;50.208;18.988;2023-06-19T11:16:47;5.05;;;4.30;;
20348;SDS011;10332;50.208;18.988;2023-06-19T11:19:15;4.32;;;3.92;;
20348;SDS011;10332;50.208;18.988;2023-06-19T11:21:47;4.70;;;4.30;;
20348;SDS011;10332;50.208;18.988;2023-06-19T11:24:18;5.10;;;4.60;;
20348;SDS011;10332;50.208;18.988;2023-06-19T11:26:48;5.13;;;4.60;;
20348;SDS011;10332;50.208;18.988;2023-06-19T11:29:22;4.78;;;3.90;;
20348;SDS011;10332;50.208;18.988;2023-06-19T11:32:06;6.20;;;5.55;;
20348;SDS011;10332;50.208;18.988;2023-06-19T11:34:37;4.47;;;4.07;;
20348;SDS011;10332;50.208;18.988;2023-06-19T11:39:40;3.95;;;3.65;;
20348;SDS011;10332;50.208;18.988;2023-06-19T11:42:10;4.57;;;3.50;;
20348;SDS011;10332;50.208;18.988;2023-06-19T11:44:53;4.93;;;3.72;;
20348;SDS011;10332;50.208;18.988;2023-06-19T11:47:33;4.05;;;3.65;;
20348;SDS011;10332;50.208;18.988;2023-06-19T11:50:03;4.15;;;3.72;;
20348;SDS011;10332;50.208;18.988;2023-06-19T11:52:32;4.22;;;3.85;;
20348;SDS011;10332;50.208;18.988;2023-06-19T11:55:00;10.95;;;9.85;;
20348;SDS011;10332;50.208;18.988;2023-06-19T11:57:27;5.10;;;4.70;;
20348;SDS011;10332;50.208;18.988;2023-06-19T11:59:55;4.32;;;3.92;;
20348;SDS011;10332;50.208;18.988;2023-06-19T12:02:22;4.28;;;3.85;;
20348;SDS011;10332;50.208;18.988;2023-06-19T12:04:50;4.32;;;4.00;;
20348;SDS011;10332;50.208;18.988;2023-06-19T12:07:18;5.57;;;4.32;;
20348;SDS011;10332;50.208;18.988;2023-06-19T12:09:45;5.70;;;4.45;;
20348;SDS011;10332;50.208;18.988;2023-06-19T12:12:13;3.80;;;3.50;;
20348;SDS011;10332;50.208;18.988;2023-06-19T12:14:40;4.57;;;4.18;;
20348;SDS011;10332;50.208;18.988;2023-06-19T12:17:09;4.78;;;3.97;;
20348;SDS011;10332;50.208;18.988;2023-06-19T12:19:37;4.82;;;3.90;;
20348;SDS011;10332;50.208;18.988;2023-06-19T12:22:05;5.95;;;5.00;;
20348;SDS011;10332;50.208;18.988;2023-06-19T12:24:32;3.90;;;3.60;;
20348;SDS011;10332;50.208;18.988;2023-06-19T12:26:59;4.68;;;3.70;;
20348;SDS011;10332;50.208;18.988;2023-06-19T12:29:27;4.22;;;3.55;;
20348;SDS011;10332;50.208;18.988;2023-06-19T12:32:00;4.55;;;3.83;;
20348;SDS011;10332;50.208;18.988;2023-06-19T12:34:31;3.72;;;3.42;;
20348;SDS011;10332;50.208;18.988;2023-06-19T12:36:59;4.15;;;3.40;;
20348;SDS011;10332;50.208;18.988;2023-06-19T12:39:26;4.90;;;3.70;;
20348;SDS011;10332;50.208;18.988;2023-06-19T12:41:54;4.00;;;3.60;;
20348;SDS011;10332;50.208;18.988;2023-06-19T12:44:22;6.32;;;3.83;;
20348;SDS011;10332;50.208;18.988;2023-06-19T12:46:51;4.18;;;3.78;;
20348;SDS011;10332;50.208;18.988;2023-06-19T12:49:19;4.25;;;3.85;;
20348;SDS011;10332;50.208;18.988;2023-06-19T12:51:47;9.27;;;8.10;;
20348;SDS011;10332;50.208;18.988;2023-06-19T12:54:18;6.13;;;5.50;;
20348;SDS011;10332;50.208;18.988;2023-06-19T12:56:46;5.40;;;4.25;;
20348;SDS011;10332;50.208;18.988;2023-06-19T12:59:13;4.60;;;4.20;;
20348;SDS011;10332;50.208;18.988;2023-06-19T13:01:41;5.15;;;4.65;;
20348;SDS011;10332;50.208;18.988;2023-06-19T13:04:12;4.35;;;3.90;;
20348;SDS011;10332;50.208;18.988;2023-06-19T13:06:40;6.43;;;5.75;;
20348;SDS011;10332;50.208;18.988;2023-06-19T13:09:07;4.97;;;4.15;;
20348;SDS011;10332;50.208;18.988;2023-06-19T13:11:35;4.15;;;3.72;;
20348;SDS011;10332;50.208;18.988;2023-06-19T13:14:04;4.65;;;4.25;;
20348;SDS011;10332;50.208;18.988;2023-06-19T13:16:32;4.18;;;3.78;;
20348;SDS011;10332;50.208;18.988;2023-06-19T13:19:12;5.10;;;4.65;;
20348;SDS011;10332;50.208;18.988;2023-06-19T13:21:42;4.43;;;4.03;;
20348;SDS011;10332;50.208;18.988;2023-06-19T13:24:10;5.20;;;3.92;;
20348;SDS011;10332;50.208;18.988;2023-06-19T13:26:38;4.20;;;3.90;;
20348;SDS011;10332;50.208;18.988;2023-06-19T13:29:06;3.85;;;3.55;;
20348;SDS011;10332;50.208;18.988;2023-06-19T13:31:34;3.47;;;3.17;;
20348;SDS011;10332;50.208;18.988;2023-06-19T13:34:01;3.83;;;3.53;;
20348;SDS011;10332;50.208;18.988;2023-06-19T13:36:29;4.10;;;3.40;;
20348;SDS011;10332;50.208;18.988;2023-06-19T13:38:57;4.03;;;3.55;;
20348;SDS011;10332;50.208;18.988;2023-06-19T13:41:24;3.83;;;3.53;;
20348;SDS011;10332;50.208;18.988;2023-06-19T13:43:53;3.60;;;3.22;;
20348;SDS011;10332;50.208;18.988;2023-06-19T13:46:21;3.78;;;3.40;;
20348;SDS011;10332;50.208;18.988;2023-06-19T13:48:49;3.70;;;3.40;;
20348;SDS011;10332;50.208;18.988;2023-06-19T13:51:19;5.18;;;3.58;;
20348;SDS011;10332;50.208;18.988;2023-06-19T13:53:49;3.63;;;3.33;;
20348;SDS011;10332;50.208;18.988;2023-06-19T13:56:17;3.70;;;3.40;;
20348;SDS011;10332;50.208;18.988;2023-06-19T13:58:46;3.75;;;3.45;;
20348;SDS011;10332;50.208;18.988;2023-06-19T14:01:13;3.60;;;3.30;;
20348;SDS011;10332;50.208;18.988;2023-06-19T14:03:41;2.90;;;2.70;;
20348;SDS011;10332;50.208;18.988;2023-06-19T14:06:09;3.60;;;3.30;;
20348;SDS011;10332;50.208;18.988;2023-06-19T14:08:37;3.58;;;3.28;;
20348;SDS011;10332;50.208;18.988;2023-06-19T14:11:06;3.72;;;3.38;;
20348;SDS011;10332;50.208;18.988;2023-06-19T14:13:34;4.57;;;3.10;;
20348;SDS011;10332;50.208;18.988;2023-06-19T14:16:02;3.60;;;3.30;;
20348;SDS011;10332;50.208;18.988;2023-06-19T14:18:30;3.10;;;2.85;;
20348;SDS011;10332;50.208;18.988;2023-06-19T14:20:57;2.65;;;2.45;;
20348;SDS011;10332;50.208;18.988;2023-06-19T14:23:25;2.78;;;2.58;;
20348;SDS011;10332;50.208;18.988;2023-06-19T14:25:52;2.80;;;2.60;;
20348;SDS011;10332;50.208;18.988;2023-06-19T14:28:20;3.60;;;3.30;;
20348;SDS011;10332;50.208;18.988;2023-06-19T14:30:47;3.67;;;3.17;;
20348;SDS011;10332;50.208;18.988;2023-06-19T14:33:15;4.05;;;3.65;;
20348;SDS011;10332;50.208;18.988;2023-06-19T14:35:43;3.20;;;3.00;;
20348;SDS011;10332;50.208;18.988;2023-06-19T14:38:13;3.47;;;3.17;;
20348;SDS011;10332;50.208;18.988;2023-06-19T14:40:41;3.10;;;2.90;;
20348;SDS011;10332;50.208;18.988;2023-06-19T14:43:10;2.95;;;2.75;;
20348;SDS011;10332;50.208;18.988;2023-06-19T14:45:37;3.90;;;3.50;;
20348;SDS011;10332;50.208;18.988;2023-06-19T14:48:07;3.03;;;2.83;;